Time;durP1;ratioP1;P1;durP2;ratioP2;P2;SDS_P1;SDS_P2;PMS_P1;PMS_P2;Temp;Humidity;BMP_temperature;BMP_pressure;BME280_temperature;BME280_humidity;BME280_pressure;Samples;Min_cycle;Max_cycle;Signal;HPM_P1;HPM_P2
2022/12/29 00:01:36;;;;;;;3.28;2.35;;;9.40;99.90;;;;;;5101924;27;20051;-82
2022/12/29 00:04:03;;;;;;;3.80;3.15;;;9.40;99.90;;;;;;5101976;27;20060;-81
2022/12/29 00:06:28;;;;;;;3.05;2.72;;;9.40;99.90;;;;;;5119167;27;20054;-81
2022/12/29 00:08:54;;;;;;;2.85;2.55;;;9.50;99.90;;;;;;5100686;28;20036;-79
2022/12/29 00:11:23;;;;;;;3.40;2.72;;;9.50;99.90;;;;;;5084481;27;20055;-81
2022/12/29 00:16:35;;;;;;;3.45;2.67;;;9.40;99.90;;;;;;5118422;27;20050;-82
2022/12/29 00:19:02;;;;;;;4.60;2.95;;;9.50;99.90;;;;;;5101861;27;20100;-79
2022/12/29 00:35:35;;;;;;;3.53;3.22;;;9.50;99.90;;;;;;5076424;27;20055;-81
2022/12/29 00:46:20;;;;;;;4.82;3.58;;;9.50;99.90;;;;;;5118186;27;20120;-81
2022/12/29 00:51:30;;;;;;;3.58;2.80;;;9.50;99.90;;;;;;5117529;27;20510;-81
2022/12/29 00:53:55;;;;;;;4.30;3.20;;;9.50;99.90;;;;;;5117732;27;20178;-78
2022/12/29 00:56:21;;;;;;;3.65;3.25;;;9.60;99.90;;;;;;5100504;27;20399;-81
2022/12/29 00:58:47;;;;;;;3.38;2.72;;;9.60;99.90;;;;;;5100783;27;20169;-81
2022/12/29 01:01:12;;;;;;;3.85;2.97;;;9.60;99.90;;;;;;5117962;27;20043;-83
2022/12/29 01:03:38;;;;;;;3.20;2.90;;;9.60;99.90;;;;;;5083945;27;20548;-82
2022/12/29 01:06:09;;;;;;;5.47;3.13;;;9.60;99.90;;;;;;5084006;27;20043;-82
2022/12/29 01:08:35;;;;;;;5.18;2.95;;;9.60;99.90;;;;;;5100234;27;20051;-79
2022/12/29 01:11:07;;;;;;;4.07;3.22;;;9.60;99.90;;;;;;5135927;27;20039;-81
2022/12/29 01:13:33;;;;;;;2.90;2.60;;;9.70;99.90;;;;;;5117606;27;20057;-81
2022/12/29 01:15:59;;;;;;;3.35;2.65;;;9.60;99.90;;;;;;5117706;27;20084;-79
2022/12/29 01:18:26;;;;;;;3.33;3.03;;;9.70;99.90;;;;;;5117405;27;20039;-82
2022/12/29 01:21:03;;;;;;;4.57;3.35;;;9.70;99.90;;;;;;5135275;27;20097;-81
2022/12/29 01:23:29;;;;;;;4.03;2.95;;;9.60;99.90;;;;;;5117165;27;20043;-81
2022/12/29 01:25:55;;;;;;;3.40;2.70;;;9.70;99.90;;;;;;5100163;27;20507;-81
2022/12/29 01:28:21;;;;;;;2.88;2.33;;;9.70;99.90;;;;;;5083665;27;20085;-79
2022/12/29 01:30:47;;;;;;;3.97;2.60;;;9.70;99.90;;;;;;5100251;27;20119;-80
2022/12/29 01:33:13;;;;;;;2.75;2.38;;;9.70;99.90;;;;;;5100180;27;20039;-78
2022/12/29 01:35:39;;;;;;;3.65;2.75;;;9.70;99.90;;;;;;5099996;27;20406;-80
2022/12/29 01:38:05;;;;;;;4.35;2.40;;;9.70;99.90;;;;;;5116811;27;20043;-79
2022/12/29 01:40:31;;;;;;;3.78;2.65;;;9.70;99.90;;;;;;5134880;27;20050;-80
2022/12/29 01:42:56;;;;;;;3.17;2.63;;;9.80;99.90;;;;;;5100127;27;20548;-80
2022/12/29 01:45:22;;;;;;;2.97;2.40;;;9.80;99.90;;;;;;5100188;27;20065;-80
2022/12/29 01:47:53;;;;;;;3.17;2.65;;;10.10;99.90;;;;;;5099723;27;20509;-80
2022/12/29 01:50:33;;;;;;;2.95;2.63;;;9.80;99.90;;;;;;5116876;27;20455;-80
2022/12/29 01:53:09;;;;;;;3.00;2.33;;;9.80;99.90;;;;;;5116565;27;20495;-79
2022/12/29 01:55:39;;;;;;;2.97;2.50;;;9.80;99.90;;;;;;5116531;27;20039;-77
2022/12/29 01:58:06;;;;;;;3.25;2.13;;;9.80;99.90;;;;;;5116749;27;20494;-81
2022/12/29 02:00:32;;;;;;;3.45;2.67;;;8.90;99.90;;;;;;5099680;27;20043;-81
2022/12/29 02:02:58;;;;;;;2.78;2.30;;;10.10;99.90;;;;;;5100427;27;20049;-78
2022/12/29 02:05:31;;;;;;;3.40;2.13;;;9.80;99.90;;;;;;5116685;27;20433;-81
2022/12/29 02:07:56;;;;;;;2.55;2.30;;;9.80;99.90;;;;;;5116506;27;20054;-80
2022/12/29 02:10:25;;;;;;;2.40;1.90;;;9.80;99.90;;;;;;5133951;27;20042;-80
2022/12/29 02:12:52;;;;;;;3.30;2.70;;;9.80;99.90;;;;;;5134522;27;20051;-81
2022/12/29 02:15:23;;;;;;;2.10;1.80;;;9.80;99.90;;;;;;5099835;28;20104;-81
2022/12/29 02:18:07;;;;;;;3.55;1.98;;;9.80;99.90;;;;;;5099399;27;20119;-80
2022/12/29 02:20:54;;;;;;;2.45;2.08;;;9.80;99.90;;;;;;5116518;27;20554;-80
2022/12/29 02:23:52;;;;;;;2.38;1.83;;;9.80;99.90;;;;;;5099070;27;20474;-78
2022/12/29 02:26:34;;;;;;;1.95;1.67;;;9.80;99.90;;;;;;5099375;28;20054;-80
2022/12/29 02:29:19;;;;;;;2.50;1.90;;;9.80;99.90;;;;;;5134525;28;20080;-79
2022/12/29 02:32:05;;;;;;;3.10;2.03;;;9.80;99.90;;;;;;5099147;27;20043;-81
2022/12/29 02:34:36;;;;;;;3.63;2.03;;;9.80;99.90;;;;;;5102519;27;20047;-80
2022/12/29 02:37:20;;;;;;;4.07;1.88;;;9.80;99.90;;;;;;5120885;27;20077;-81
2022/12/29 02:40:10;;;;;;;2.95;2.10;;;9.80;99.90;;;;;;5103003;27;20045;-80
2022/12/29 02:42:59;;;;;;;2.33;1.67;;;9.90;99.90;;;;;;5138748;27;20502;-80
2022/12/29 02:45:35;;;;;;;2.28;1.85;;;9.90;99.90;;;;;;5120069;27;20517;-76
2022/12/29 02:48:18;;;;;;;2.53;1.60;;;9.90;99.90;;;;;;5103579;27;20095;-80
2022/12/29 02:51:06;;;;;;;3.53;1.52;;;9.90;99.90;;;;;;5120493;27;20055;-80
2022/12/29 02:56:19;;;;;;;2.08;1.60;;;9.90;99.90;;;;;;5120147;27;20059;-79
2022/12/29 02:58:44;;;;;;;3.88;1.60;;;10.00;99.90;;;;;;5103425;27;20459;-83
2022/12/29 03:01:31;;;;;;;2.45;1.70;;;9.90;99.90;;;;;;5103226;27;20047;-79
2022/12/29 03:04:10;;;;;;;3.58;1.65;;;9.90;99.90;;;;;;5104678;27;20039;-81
2022/12/29 03:07:00;;;;;;;4.32;1.50;;;9.90;99.90;;;;;;5120105;27;20075;-77
2022/12/29 03:09:47;;;;;;;1.50;1.13;;;9.90;99.90;;;;;;5102555;27;20078;-82
2022/12/29 03:16:02;;;;;;;2.33;1.20;;;9.90;99.90;;;;;;5119679;27;20501;-80
2022/12/29 03:18:47;;;;;;;3.20;1.40;;;9.90;99.90;;;;;;5095825;27;20069;-82
2022/12/29 03:21:19;;;;;;;2.38;1.17;;;9.90;99.90;;;;;;5138330;27;20075;-78
2022/12/29 03:23:48;;;;;;;1.30;1.10;;;9.90;99.90;;;;;;5119528;27;20176;-83
2022/12/29 03:26:16;;;;;;;2.45;1.10;;;9.90;99.90;;;;;;5119391;27;20383;-81
2022/12/29 03:28:49;;;;;;;1.25;0.80;;;9.90;99.90;;;;;;5119840;27;20043;-80
2022/12/29 03:31:17;;;;;;;0.85;0.80;;;9.90;99.90;;;;;;5119546;27;20058;-80
2022/12/29 03:33:44;;;;;;;1.42;0.90;;;9.90;99.90;;;;;;5119263;27;20084;-78
2022/12/29 03:36:27;;;;;;;1.20;0.90;;;10.00;99.90;;;;;;5119045;27;20058;-79
2022/12/29 03:39:03;;;;;;;3.33;1.05;;;10.00;99.90;;;;;;5118978;27;20051;-79
2022/12/29 03:41:32;;;;;;;0.95;0.85;;;10.00;99.90;;;;;;5102369;27;20123;-77
2022/12/29 03:43:58;;;;;;;2.17;0.90;;;10.00;99.90;;;;;;5119639;27;20054;-78
2022/12/29 03:46:24;;;;;;;0.70;0.68;;;10.10;99.90;;;;;;5119286;27;20049;-77
2022/12/29 03:48:50;;;;;;;1.95;0.80;;;10.10;99.90;;;;;;5101805;27;20124;-78
2022/12/29 03:51:15;;;;;;;0.82;0.68;;;10.10;99.90;;;;;;5101765;27;20039;-77
2022/12/29 03:53:41;;;;;;;0.77;0.77;;;10.10;99.90;;;;;;5101977;27;20039;-80
2022/12/29 03:56:07;;;;;;;1.92;0.70;;;10.10;99.90;;;;;;5101694;27;20043;-79
2022/12/29 03:58:32;;;;;;;1.42;0.80;;;10.10;99.90;;;;;;5118739;27;20046;-81
2022/12/29 04:00:58;;;;;;;1.50;0.80;;;10.00;99.90;;;;;;5119094;27;20079;-77
2022/12/29 04:03:24;;;;;;;2.20;0.80;;;10.10;99.90;;;;;;5084672;27;20043;-81
2022/12/29 04:05:49;;;;;;;1.90;0.88;;;10.10;99.90;;;;;;5101701;27;20068;-78
2022/12/29 04:08:15;;;;;;;1.65;0.70;;;10.00;99.90;;;;;;5118862;27;20070;-78
2022/12/29 04:10:41;;;;;;;0.90;0.80;;;10.10;99.90;;;;;;5101308;27;20066;-77
2022/12/29 04:13:07;;;;;;;1.55;0.70;;;10.10;99.90;;;;;;5101643;27;20071;-79
2022/12/29 04:15:32;;;;;;;2.17;0.70;;;10.00;99.90;;;;;;5118615;27;20038;-77
2022/12/29 04:17:58;;;;;;;2.35;0.73;;;10.00;99.90;;;;;;5084653;27;20127;-76
2022/12/29 04:23:08;;;;;;;1.08;0.60;;;10.00;99.90;;;;;;5104025;27;20054;-77
2022/12/29 04:25:34;;;;;;;1.65;0.70;;;10.00;99.90;;;;;;5118203;27;20043;-77
2022/12/29 04:28:00;;;;;;;0.70;0.50;;;10.10;99.90;;;;;;5118682;27;20051;-75
2022/12/29 04:30:26;;;;;;;0.90;0.63;;;10.00;99.90;;;;;;5118080;27;20415;-75
2022/12/29 04:32:51;;;;;;;2.72;0.70;;;10.00;99.90;;;;;;5136162;27;20043;-76
2022/12/29 04:35:17;;;;;;;2.08;0.60;;;10.30;99.90;;;;;;5101117;27;20043;-77
2022/12/29 04:37:43;;;;;;;1.55;0.70;;;10.10;99.90;;;;;;5136133;27;20047;-77
2022/12/29 04:40:09;;;;;;;1.55;0.65;;;10.00;99.90;;;;;;5136062;27;20072;-77
2022/12/29 04:42:35;;;;;;;1.40;0.60;;;10.00;99.90;;;;;;5118033;27;20083;-76
2022/12/29 04:45:01;;;;;;;0.70;0.50;;;10.00;99.90;;;;;;5101174;27;20089;-80
2022/12/29 04:47:26;;;;;;;3.55;0.60;;;10.00;99.90;;;;;;5084208;27;20047;-77
2022/12/29 04:49:52;;;;;;;1.77;0.70;;;10.00;99.90;;;;;;5136093;27;20487;-78
2022/12/29 04:52:18;;;;;;;1.67;0.57;;;10.00;99.90;;;;;;5118168;27;20079;-77
2022/12/29 04:54:44;;;;;;;1.83;0.50;;;10.00;99.90;;;;;;5117397;27;20050;-74
2022/12/29 04:57:10;;;;;;;0.85;0.35;;;10.00;99.90;;;;;;5135248;27;20051;-75
2022/12/29 04:59:35;;;;;;;1.38;0.30;;;10.00;99.90;;;;;;5117426;27;20395;-75
2022/12/29 05:02:01;;;;;;;2.83;0.60;;;9.90;99.90;;;;;;5117370;27;20054;-76
2022/12/29 05:04:27;;;;;;;2.05;0.57;;;9.90;99.90;;;;;;5135825;27;20041;-76
2022/12/29 05:06:52;;;;;;;2.58;0.65;;;9.90;99.90;;;;;;5117596;27;20406;-78
2022/12/29 05:09:18;;;;;;;3.80;0.50;;;9.90;99.90;;;;;;5117225;27;20047;-78
2022/12/29 05:11:44;;;;;;;1.35;0.65;;;9.90;99.90;;;;;;5083949;27;20043;-76
2022/12/29 05:14:09;;;;;;;1.92;0.45;;;9.90;99.90;;;;;;5100315;27;20134;-77
2022/12/29 05:16:35;;;;;;;2.40;0.47;;;9.90;99.90;;;;;;5083286;27;20043;-76
2022/12/29 05:19:01;;;;;;;1.58;0.47;;;9.90;99.90;;;;;;5135429;27;20078;-77
2022/12/29 05:21:26;;;;;;;2.05;0.50;;;9.80;99.90;;;;;;5100200;27;20087;-77
2022/12/29 05:23:52;;;;;;;2.80;0.60;;;9.80;99.90;;;;;;5117360;27;20122;-73
2022/12/29 05:26:18;;;;;;;2.63;0.60;;;9.80;99.90;;;;;;5100035;27;20050;-74
2022/12/29 05:28:43;;;;;;;3.65;0.70;;;9.70;99.90;;;;;;5100042;27;20043;-77
2022/12/29 05:31:09;;;;;;;2.88;0.70;;;9.70;99.90;;;;;;5083149;27;20109;-74
2022/12/29 05:33:35;;;;;;;3.92;0.80;;;9.70;99.90;;;;;;5135147;27;20180;-76
2022/12/29 05:36:05;;;;;;;2.95;0.55;;;9.70;99.90;;;;;;5135150;27;20043;-73
2022/12/29 05:38:30;;;;;;;4.93;0.80;;;9.70;99.90;;;;;;5135517;27;20055;-74
2022/12/29 05:40:56;;;;;;;2.38;0.50;;;9.60;99.90;;;;;;5099437;27;20054;-74
2022/12/29 05:43:22;;;;;;;4.18;0.77;;;9.70;99.90;;;;;;5066346;27;20047;-74
2022/12/29 05:45:52;;;;;;;5.72;1.20;;;9.60;99.90;;;;;;5099748;27;20146;-75
2022/12/29 05:48:17;;;;;;;4.50;0.88;;;9.60;99.90;;;;;;5099730;27;20039;-75
2022/12/29 05:50:50;;;;;;;3.63;0.90;;;9.60;99.90;;;;;;5134657;27;20120;-74
2022/12/29 05:53:17;;;;;;;4.63;1.20;;;9.50;99.90;;;;;;5099779;27;20043;-74
2022/12/29 05:55:44;;;;;;;5.65;1.15;;;9.50;99.90;;;;;;5134653;27;20043;-75
2022/12/29 05:58:10;;;;;;;3.50;0.82;;;9.50;99.90;;;;;;5134718;27;20043;-73
2022/12/29 06:00:35;;;;;;;5.53;0.90;;;9.40;99.90;;;;;;5116413;27;20043;-74
2022/12/29 06:03:01;;;;;;;7.60;1.30;;;9.50;99.90;;;;;;5099519;27;20043;-75
2022/12/29 06:05:27;;;;;;;3.35;1.00;;;9.40;99.90;;;;;;5099607;27;20043;-74
2022/12/29 06:07:52;;;;;;;3.95;0.85;;;9.50;99.90;;;;;;5133781;27;20043;-74
2022/12/29 06:10:18;;;;;;;6.28;1.05;;;9.40;99.90;;;;;;5099308;27;20051;-75
2022/12/29 06:12:44;;;;;;;7.28;1.13;;;9.40;99.90;;;;;;5099374;28;20055;-76
2022/12/29 06:15:10;;;;;;;8.02;0.90;;;9.40;99.90;;;;;;5082404;28;20046;-74
2022/12/29 06:17:35;;;;;;;4.95;1.15;;;9.40;99.90;;;;;;5099389;28;20043;-75
2022/12/29 06:20:02;;;;;;;4.00;0.80;;;9.40;99.90;;;;;;5134525;27;20368;-75
2022/12/29 06:22:28;;;;;;;4.63;0.80;;;9.40;99.90;;;;;;5116654;28;20419;-75
2022/12/29 06:24:53;;;;;;;3.83;0.80;;;9.50;99.90;;;;;;5082494;27;20039;-74
2022/12/29 06:27:19;;;;;;;3.40;0.60;;;9.40;99.90;;;;;;5116024;28;20116;-74
2022/12/29 06:29:44;;;;;;;2.55;0.90;;;9.40;99.90;;;;;;5115863;28;20045;-75
2022/12/29 06:32:10;;;;;;;3.00;0.73;;;9.40;99.90;;;;;;5099138;28;20089;-76
2022/12/29 06:34:36;;;;;;;3.85;0.70;;;9.40;99.90;;;;;;5115967;28;20047;-73
2022/12/29 06:37:02;;;;;;;3.75;0.57;;;9.40;99.90;;;;;;5115979;28;20095;-74
2022/12/29 06:39:27;;;;;;;4.65;0.50;;;9.40;99.90;;;;;;5098767;28;20134;-76
2022/12/29 06:41:54;;;;;;;3.40;0.50;;;9.40;99.90;;;;;;5099496;28;20043;-76
2022/12/29 06:44:23;;;;;;;4.30;0.73;;;9.40;99.90;;;;;;5115666;28;20557;-75
2022/12/29 06:46:50;;;;;;;3.83;0.63;;;9.40;99.90;;;;;;5116239;28;20047;-75
2022/12/29 06:49:16;;;;;;;3.92;0.50;;;9.40;99.90;;;;;;5099027;28;20134;-75
2022/12/29 06:51:41;;;;;;;3.53;0.95;;;9.40;99.90;;;;;;5116351;28;20547;-73
2022/12/29 06:54:07;;;;;;;6.40;0.98;;;9.40;99.90;;;;;;5115857;28;20047;-71
2022/12/29 06:56:33;;;;;;;7.15;0.77;;;9.40;99.90;;;;;;5098819;28;20051;-71
2022/12/29 06:59:02;;;;;;;4.68;0.70;;;9.30;99.90;;;;;;5115749;28;20047;-75
2022/12/29 07:01:27;;;;;;;7.88;1.20;;;9.40;99.90;;;;;;5082316;28;20055;-74
2022/12/29 07:03:53;;;;;;;4.20;1.00;;;9.40;99.90;;;;;;5115870;28;20072;-76
2022/12/29 07:06:20;;;;;;;4.82;0.77;;;9.40;99.90;;;;;;5098845;28;20129;-76
2022/12/29 07:08:45;;;;;;;5.38;0.65;;;9.30;99.90;;;;;;5099113;28;20043;-74
2022/12/29 07:11:11;;;;;;;6.00;1.08;;;9.30;99.90;;;;;;5115373;28;20378;-76
2022/12/29 07:13:37;;;;;;;3.90;0.85;;;9.30;99.90;;;;;;5081791;28;20046;-73
2022/12/29 07:16:07;;;;;;;7.65;1.70;;;9.30;99.90;;;;;;5116204;28;20047;-74
2022/12/29 07:18:33;;;;;;;11.48;2.65;;;9.30;99.90;;;;;;5116241;27;20376;-77
2022/12/29 07:20:59;;;;;;;8.30;2.20;;;9.30;99.90;;;;;;5119533;27;20096;-74
2022/12/29 07:23:24;;;;;;;7.03;1.30;;;9.20;99.90;;;;;;5119572;27;20043;-76
2022/12/29 07:25:50;;;;;;;4.40;0.85;;;9.30;99.90;;;;;;5102368;27;20051;-77
2022/12/29 07:28:16;;;;;;;2.95;0.82;;;9.20;99.90;;;;;;5085590;27;20141;-74
2022/12/29 07:30:41;;;;;;;5.60;0.70;;;9.20;99.90;;;;;;5119403;27;20420;-72
2022/12/29 07:33:07;;;;;;;7.05;0.80;;;9.20;99.90;;;;;;5137416;27;20093;-73
2022/12/29 07:35:36;;;;;;;5.35;0.93;;;9.20;99.90;;;;;;5102289;27;20043;-73
2022/12/29 07:38:01;;;;;;;5.05;0.90;;;9.20;99.90;;;;;;5102288;27;20051;-76
2022/12/29 07:40:27;;;;;;;8.68;1.23;;;9.30;99.90;;;;;;5136809;27;20152;-74
2022/12/29 07:42:53;;;;;;;3.17;0.68;;;9.30;99.90;;;;;;5119023;27;20043;-73
2022/12/29 07:45:18;;;;;;;7.28;0.98;;;9.30;99.90;;;;;;5137239;27;20043;-72
2022/12/29 07:47:48;;;;;;;4.18;0.70;;;9.30;99.90;;;;;;5118964;27;20544;-72
2022/12/29 07:50:14;;;;;;;5.53;1.20;;;9.30;99.90;;;;;;5119131;27;20051;-71
2022/12/29 07:52:40;;;;;;;6.53;0.95;;;9.30;99.90;;;;;;5118566;27;20043;-71
2022/12/29 07:55:06;;;;;;;9.70;1.00;;;9.30;99.90;;;;;;5118624;27;20085;-73
2022/12/29 07:57:32;;;;;;;6.10;1.10;;;9.30;99.90;;;;;;5118645;27;20157;-73
2022/12/29 07:59:58;;;;;;;6.22;1.00;;;9.30;99.90;;;;;;5102186;27;20093;-73
2022/12/29 08:02:25;;;;;;;2.38;0.73;;;9.30;99.90;;;;;;5136503;27;20067;-71
2022/12/29 08:04:51;;;;;;;7.70;1.27;;;9.40;99.90;;;;;;5118476;27;20130;-72
2022/12/29 08:07:17;;;;;;;3.90;0.93;;;9.40;99.90;;;;;;5101600;27;20075;-73
2022/12/29 08:09:43;;;;;;;4.95;0.95;;;9.40;99.90;;;;;;5118075;27;20043;-73
2022/12/29 08:12:10;;;;;;;6.88;0.98;;;9.40;99.90;;;;;;5118114;27;20051;-72
2022/12/29 08:14:36;;;;;;;6.00;1.17;;;9.40;99.90;;;;;;5118464;27;20043;-72
2022/12/29 08:17:01;;;;;;;4.95;1.05;;;9.40;99.90;;;;;;5101463;27;20054;-74
2022/12/29 08:19:27;;;;;;;5.90;0.80;;;9.40;99.90;;;;;;5118319;27;20055;-73
2022/12/29 08:21:53;;;;;;;6.80;0.80;;;9.50;99.90;;;;;;5101503;27;20078;-72
2022/12/29 08:24:19;;;;;;;6.03;0.90;;;9.50;99.90;;;;;;5101239;27;20104;-72
2022/12/29 08:26:45;;;;;;;7.55;0.93;;;9.50;99.90;;;;;;5118694;27;20437;-73
2022/12/29 08:29:10;;;;;;;8.10;1.17;;;9.40;99.90;;;;;;5118264;27;20049;-71
2022/12/29 08:31:37;;;;;;;4.32;0.80;;;9.50;99.90;;;;;;5117538;27;20097;-73
2022/12/29 08:34:03;;;;;;;4.03;0.80;;;9.50;99.90;;;;;;5118110;27;20039;-74
2022/12/29 08:36:30;;;;;;;4.55;0.95;;;9.50;99.90;;;;;;5118234;27;20051;-74
2022/12/29 08:38:56;;;;;;;6.05;0.85;;;9.50;99.90;;;;;;5101143;27;20043;-75
2022/12/29 08:41:22;;;;;;;5.40;0.80;;;9.50;99.90;;;;;;5117868;27;20112;-78
2022/12/29 08:43:48;;;;;;;5.88;1.35;;;9.50;99.90;;;;;;5118157;27;20475;-74
2022/12/29 08:46:15;;;;;;;9.00;1.10;;;9.50;99.90;;;;;;5118183;27;20055;-76
2022/12/29 08:48:40;;;;;;;6.43;0.98;;;10.00;99.90;;;;;;5117991;27;20043;-71
2022/12/29 08:51:07;;;;;;;8.35;0.90;;;9.60;99.90;;;;;;5117884;27;20043;-73
2022/12/29 08:53:33;;;;;;;5.55;0.90;;;9.60;99.90;;;;;;5100861;27;20043;-73
2022/12/29 08:56:00;;;;;;;10.75;1.33;;;9.60;99.90;;;;;;5136020;27;20055;-73
2022/12/29 08:58:26;;;;;;;9.23;0.80;;;9.60;99.90;;;;;;5117984;27;20047;-74
2022/12/29 09:00:56;;;;;;;8.50;1.10;;;9.60;99.90;;;;;;5136194;27;20049;-70
2022/12/29 09:03:23;;;;;;;6.07;1.40;;;9.60;99.90;;;;;;5117816;27;20047;-70
2022/12/29 09:05:50;;;;;;;4.78;0.90;;;9.50;99.90;;;;;;5117811;27;20137;-71
2022/12/29 09:08:16;;;;;;;12.00;1.58;;;9.60;99.90;;;;;;5117450;27;20402;-72
2022/12/29 09:10:43;;;;;;;6.60;1.23;;;9.60;99.90;;;;;;5100394;27;20050;-71
2022/12/29 09:13:09;;;;;;;8.77;1.00;;;9.60;99.90;;;;;;5116827;27;20043;-71
2022/12/29 09:15:35;;;;;;;6.07;1.10;;;9.60;99.90;;;;;;5134982;27;20039;-71
2022/12/29 09:18:00;;;;;;;8.45;1.10;;;9.60;99.90;;;;;;5116590;27;20524;-73
2022/12/29 09:20:26;;;;;;;9.68;1.65;;;9.60;99.90;;;;;;5134928;27;20171;-72
2022/12/29 09:22:52;;;;;;;4.40;1.00;;;9.50;99.90;;;;;;5099663;27;20069;-71
2022/12/29 09:25:17;;;;;;;8.02;0.98;;;9.60;99.90;;;;;;5082410;27;20032;-71
2022/12/29 09:27:43;;;;;;;5.47;1.00;;;9.60;99.90;;;;;;5134881;27;20124;-72
2022/12/29 09:30:11;;;;;;;8.07;1.25;;;9.60;99.90;;;;;;5116719;27;20043;-72
2022/12/29 09:32:37;;;;;;;6.97;0.93;;;9.60;99.90;;;;;;5134779;27;20035;-71
2022/12/29 09:35:03;;;;;;;4.45;0.85;;;9.60;99.90;;;;;;5116230;27;20126;-70
2022/12/29 09:37:29;;;;;;;8.82;1.27;;;9.60;99.90;;;;;;5116391;27;20122;-72
2022/12/29 09:39:55;;;;;;;7.07;0.90;;;9.60;99.90;;;;;;5098011;27;20111;-72
2022/12/29 09:42:27;;;;;;;6.22;1.00;;;9.60;99.90;;;;;;5099308;27;20070;-73
2022/12/29 09:45:15;;;;;;;7.68;1.20;;;9.50;99.90;;;;;;5116357;27;20136;-72
2022/12/29 09:47:43;;;;;;;10.32;1.15;;;9.50;99.90;;;;;;5134096;27;20038;-71
2022/12/29 09:50:32;;;;;;;5.32;1.10;;;9.40;99.90;;;;;;5134327;27;20385;-73
2022/12/29 09:53:05;;;;;;;9.45;1.30;;;9.40;99.90;;;;;;5098673;27;20050;-72
2022/12/29 09:55:57;;;;;;;4.95;1.02;;;9.80;99.90;;;;;;5114522;27;20054;-71
2022/12/29 09:58:30;;;;;;;5.88;1.35;;;8.80;99.90;;;;;;5134169;27;20088;-72
2022/12/29 10:00:59;;;;;;;7.53;1.48;;;9.30;99.90;;;;;;5116344;27;20483;-71
2022/12/29 10:03:35;;;;;;;7.60;1.08;;;9.20;99.90;;;;;;5096609;27;20039;-71
2022/12/29 10:06:08;;;;;;;8.70;1.15;;;9.20;99.90;;;;;;5116110;27;20040;-72
2022/12/29 10:09:06;;;;;;;4.05;0.98;;;9.20;99.90;;;;;;5115900;27;20051;-73
2022/12/29 10:11:34;;;;;;;7.70;0.85;;;9.30;99.90;;;;;;5113594;27;20043;-73
2022/12/29 10:14:26;;;;;;;5.60;1.10;;;9.30;99.90;;;;;;5098316;27;20074;-72
2022/12/29 10:17:09;;;;;;;5.10;1.02;;;9.30;99.90;;;;;;5114020;28;20049;-72
2022/12/29 10:20:05;;;;;;;6.18;1.42;;;9.30;99.90;;;;;;5107867;27;20078;-74
2022/12/29 10:22:34;;;;;;;6.28;0.82;;;9.30;99.90;;;;;;5096257;27;20047;-71
2022/12/29 10:25:03;;;;;;;4.72;0.80;;;9.30;99.90;;;;;;5098667;27;20035;-73
2022/12/29 10:27:32;;;;;;;9.57;0.95;;;9.30;99.90;;;;;;5115364;27;20043;-72
2022/12/29 10:29:59;;;;;;;4.75;0.98;;;9.30;99.90;;;;;;5133455;27;20391;-72
2022/12/29 10:32:40;;;;;;;9.35;1.00;;;9.40;99.90;;;;;;5112957;28;20368;-72
2022/12/29 10:35:14;;;;;;;7.85;1.02;;;9.30;99.90;;;;;;5112847;28;20046;-71
2022/12/29 10:38:09;;;;;;;6.38;1.25;;;9.30;99.90;;;;;;5133352;28;20043;-71
2022/12/29 10:41:15;;;;;;;5.72;0.90;;;9.30;99.90;;;;;;5113289;28;20039;-73
2022/12/29 10:43:45;;;;;;;8.82;0.93;;;9.30;99.90;;;;;;5050152;28;20072;-75
2022/12/29 10:46:16;;;;;;;5.60;1.20;;;9.30;99.90;;;;;;5112865;28;20050;-74
2022/12/29 10:48:45;;;;;;;6.20;0.95;;;9.30;99.90;;;;;;5133738;28;20035;-75
2022/12/29 10:51:29;;;;;;;7.75;1.40;;;9.20;99.90;;;;;;5082335;28;20444;-73
2022/12/29 10:54:16;;;;;;;5.57;0.90;;;9.20;99.90;;;;;;5133493;27;20042;-74
2022/12/29 10:56:46;;;;;;;3.90;0.75;;;9.10;99.90;;;;;;5136945;27;20051;-75
2022/12/29 10:59:18;;;;;;;6.10;1.65;;;9.10;99.90;;;;;;5119176;27;20125;-73
2022/12/29 11:02:11;;;;;;;5.15;0.80;;;9.00;99.90;;;;;;5102140;27;20118;-74
2022/12/29 11:04:39;;;;;;;6.95;0.95;;;9.00;99.90;;;;;;5101239;27;20149;-73
2022/12/29 11:07:06;;;;;;;5.68;0.90;;;9.00;99.90;;;;;;5116547;27;20043;-75
2022/12/29 11:09:35;;;;;;;5.25;1.05;;;9.10;99.90;;;;;;5136961;27;20055;-74
2022/12/29 11:12:20;;;;;;;6.28;0.90;;;8.90;99.90;;;;;;5137194;27;20084;-72
2022/12/29 11:14:46;;;;;;;4.55;1.05;;;8.90;99.90;;;;;;5099488;27;20054;-75
2022/12/29 11:17:17;;;;;;;3.92;0.93;;;8.90;99.90;;;;;;5137293;27;20486;-74
2022/12/29 11:19:43;;;;;;;5.47;0.80;;;8.90;99.90;;;;;;5136802;27;20074;-74
2022/12/29 11:22:26;;;;;;;5.13;1.10;;;8.90;99.90;;;;;;5119066;27;20492;-74
2022/12/29 11:24:54;;;;;;;3.28;0.80;;;8.90;99.90;;;;;;5117503;27;20064;-74
2022/12/29 11:27:23;;;;;;;5.93;1.08;;;8.90;99.90;;;;;;5137171;27;20043;-75
2022/12/29 11:29:51;;;;;;;6.53;1.05;;;8.90;99.90;;;;;;5100840;27;20052;-73
2022/12/29 11:32:26;;;;;;;2.25;0.63;;;8.90;99.90;;;;;;5118665;27;20047;-74
2022/12/29 11:34:52;;;;;;;4.10;0.93;;;8.90;99.90;;;;;;5135154;27;20118;-73
2022/12/29 11:37:19;;;;;;;10.15;1.38;;;9.00;99.90;;;;;;5118701;27;20043;-74
2022/12/29 11:39:57;;;;;;;4.85;0.85;;;8.90;99.90;;;;;;5098542;27;20054;-74
2022/12/29 11:42:34;;;;;;;6.05;1.10;;;8.90;99.90;;;;;;5118538;27;20071;-75
2022/12/29 11:45:07;;;;;;;8.35;1.27;;;9.00;99.90;;;;;;5118551;27;20478;-75
2022/12/29 11:47:33;;;;;;;6.13;1.23;;;9.00;99.90;;;;;;5131737;27;20047;-73
2022/12/29 11:50:03;;;;;;;4.18;1.00;;;9.00;99.90;;;;;;5107107;22;20065;-70
2022/12/29 11:52:34;;;;;;;3.90;0.90;;;9.10;99.90;;;;;;5083566;28;20083;-75
2022/12/29 11:55:04;;;;;;;6.68;1.00;;;9.00;99.90;;;;;;5073174;28;20109;-76
2022/12/29 11:57:33;;;;;;;5.97;1.17;;;9.00;99.90;;;;;;5075051;28;20055;-76
2022/12/29 12:00:03;;;;;;;6.75;1.25;;;9.20;99.90;;;;;;5074817;28;20048;-75
2022/12/29 12:02:45;;;;;;;7.85;1.42;;;9.20;99.90;;;;;;5083811;28;20399;-74
2022/12/29 12:05:27;;;;;;;7.80;1.10;;;9.20;99.90;;;;;;5056074;28;20487;-75
2022/12/29 12:08:02;;;;;;;7.72;1.00;;;9.30;99.90;;;;;;5083837;28;20514;-77
2022/12/29 12:10:50;;;;;;;5.18;1.30;;;9.20;99.90;;;;;;5084210;28;20047;-73
2022/12/29 12:13:47;;;;;;;7.45;1.50;;;9.20;99.90;;;;;;5051954;28;20118;-72
2022/12/29 12:16:18;;;;;;;8.65;1.40;;;9.20;99.90;;;;;;5071643;28;20079;-74
2022/12/29 12:19:04;;;;;;;14.32;1.60;;;9.20;99.90;;;;;;5064900;28;20105;-76
2022/12/29 12:21:37;;;;;;;6.57;1.20;;;9.20;99.90;;;;;;5071720;28;20091;-75
2022/12/29 12:24:09;;;;;;;9.18;1.77;;;9.20;99.90;;;;;;5072226;28;20052;-75
2022/12/29 12:26:57;;;;;;;9.50;1.85;;;9.20;99.90;;;;;;5067528;28;20051;-76
2022/12/29 12:29:32;;;;;;;12.63;1.58;;;9.30;99.90;;;;;;5069491;28;20040;-75
2022/12/29 12:31:59;;;;;;;11.07;1.25;;;9.20;99.90;;;;;;5047520;28;20046;-75
2022/12/29 12:34:51;;;;;;;9.85;1.42;;;9.30;99.90;;;;;;5084568;28;20032;-75
2022/12/29 12:37:35;;;;;;;11.57;1.65;;;9.30;99.90;;;;;;5081683;28;20048;-72
2022/12/29 12:40:29;;;;;;;8.00;1.33;;;9.30;99.90;;;;;;5083673;28;20048;-75
2022/12/29 12:43:25;;;;;;;12.77;1.60;;;9.30;99.90;;;;;;5081697;28;20507;-73
2022/12/29 12:46:20;;;;;;;10.25;1.50;;;9.30;99.90;;;;;;5071990;28;20048;-76
2022/12/29 12:49:37;;;;;;;10.90;1.42;;;9.30;99.90;;;;;;5082207;28;20083;-73
2022/12/29 12:52:41;;;;;;;10.30;1.63;;;9.30;99.90;;;;;;5030870;28;20264;-73
2022/12/29 12:55:29;;;;;;;8.27;1.00;;;9.30;99.90;;;;;;5044184;28;20514;-73
2022/12/29 12:58:14;;;;;;;8.10;1.67;;;9.30;99.90;;;;;;5083277;28;20048;-71
2022/12/29 13:01:12;;;;;;;9.38;1.27;;;9.40;99.90;;;;;;5069400;28;20493;-72
2022/12/29 13:03:54;;;;;;;8.45;1.27;;;9.40;99.90;;;;;;5045549;28;20055;-75
2022/12/29 13:06:54;;;;;;;7.40;1.25;;;9.50;99.90;;;;;;5072233;28;20067;-73
2022/12/29 13:09:57;;;;;;;6.65;1.02;;;9.60;99.90;;;;;;5084055;28;20097;-76
2022/12/29 13:13:04;;;;;;;5.43;0.80;;;9.70;99.90;;;;;;5077222;28;20056;-72
2022/12/29 13:15:49;;;;;;;7.45;1.38;;;9.70;99.90;;;;;;5071444;28;20106;-71
2022/12/29 13:18:37;;;;;;;9.80;1.42;;;9.70;99.90;;;;;;5081572;28;20129;-72
2022/12/29 13:21:12;;;;;;;6.90;1.42;;;9.70;99.90;;;;;;5069212;28;20041;-73
2022/12/29 13:24:22;;;;;;;7.95;1.05;;;9.80;99.90;;;;;;5081988;28;20036;-74
2022/12/29 13:26:58;;;;;;;9.95;1.10;;;9.70;99.90;;;;;;5016250;28;20049;-72
2022/12/29 13:29:55;;;;;;;7.88;1.00;;;9.70;99.90;;;;;;5081364;28;20116;-73
2022/12/29 13:32:32;;;;;;;6.93;1.00;;;9.60;99.90;;;;;;5066555;28;20066;-72
2022/12/29 13:35:22;;;;;;;7.28;0.90;;;9.60;99.90;;;;;;5054959;28;20044;-68
2022/12/29 13:38:03;;;;;;;4.70;0.77;;;9.50;99.90;;;;;;5069825;28;20127;-72
2022/12/29 13:40:34;;;;;;;4.30;0.98;;;9.50;99.90;;;;;;5052827;28;20040;-71
2022/12/29 13:43:01;;;;;;;5.68;0.90;;;9.40;99.90;;;;;;5071956;28;20044;-71
2022/12/29 13:45:31;;;;;;;7.50;0.90;;;9.40;99.90;;;;;;5081186;28;20076;-71
2022/12/29 13:48:16;;;;;;;7.15;1.02;;;9.40;99.90;;;;;;5081625;28;20048;-73
2022/12/29 13:50:48;;;;;;;8.55;0.80;;;9.30;99.90;;;;;;5082640;28;20046;-72
2022/12/29 13:53:48;;;;;;;6.18;0.88;;;9.30;99.90;;;;;;5046398;28;20047;-74
2022/12/29 13:56:30;;;;;;;6.82;1.00;;;9.30;99.90;;;;;;5071137;28;20454;-71